This is the latest recevied weather packets stored in our database for station/object KE0FIN. If no packets are shown the sender has not sent any weather packets the latest 1 day(s).
| Time | Temp. | Humidity | Pressure | Rain* | Wind** | Luminosity | Snow |
|---|---|---|---|---|---|---|---|
| 1777999022 | 10° C | 71% | 1063.9 hPa | 0 mm | 0 m/s | 90 W/m² | - |
| 1777998720 | 10.56° C | 68% | 1063.6 hPa | 0 mm | 0.45 m/s, 88° | 85 W/m² | - |
| 1777998418 | 10.56° C | 69% | 1063.7 hPa | 0 mm | 0.45 m/s, 104° | 67 W/m² | - |
| 1777998115 | 11.11° C | 64% | 1063.7 hPa | 0 mm | 0.89 m/s, 81° | 61 W/m² | - |
| 1777997811 | 11.11° C | 64% | 1063.5 hPa | 0 mm | 0.89 m/s, 125° | 86 W/m² | - |
| 1777997509 | 11.11° C | 65% | 1063.7 hPa | 0 mm | 1.34 m/s, 110° | 58 W/m² | - |
| 1777997207 | 11.11° C | 65% | 1063.3 hPa | 0 mm | 0.45 m/s, 148° | 56 W/m² | - |
| 1777996904 | 11.11° C | 65% | 1063.6 hPa | 0 mm | 0.45 m/s, 116° | 71 W/m² | - |
| 1777996600 | 11.11° C | 64% | 1063.7 hPa | 0 mm | 1.34 m/s, 157° | 57 W/m² | - |
| 1777996296 | 11.11° C | 64% | 1063.3 hPa | 0 mm | 0.89 m/s, 84° | 81 W/m² | - |
| 1777995992 | 11.11° C | 65% | 1063.2 hPa | 0 mm | 0.89 m/s, 124° | 69 W/m² | - |
| 1777995688 | 11.67° C | 67% | 1062.8 hPa | 0 mm | 0.89 m/s, 105° | 71 W/m² | - |
| 1777995386 | 11.67° C | 66% | 1062.8 hPa | 0 mm | 0.45 m/s, 105° | 65 W/m² | - |
| 1777995083 | 11.11° C | 66% | 1062.6 hPa | 0 mm | 0.45 m/s, 108° | 110 W/m² | - |
| 1777994780 | 11.11° C | 64% | 1062.5 hPa | 0 mm | 0.45 m/s, 116° | 92 W/m² | - |
| 1777994475 | 11.11° C | 64% | 1062.6 hPa | 0 mm | 0.45 m/s, 121° | 77 W/m² | - |
| 1777994171 | 11.11° C | 63% | 1062.5 hPa | 0 mm | 1.34 m/s, 74° | 75 W/m² | - |
| 1777993869 | 11.11° C | 63% | 1062.4 hPa | 0 mm | 0.89 m/s, 136° | 90 W/m² | - |
| 1777993565 | 11.11° C | 62% | 1062.4 hPa | 0 mm | 0.89 m/s, 133° | 124 W/m² | - |
| 1777993261 | 11.11° C | 62% | 1062.3 hPa | 0 mm | 0.45 m/s, 126° | 110 W/m² | - |
| 1777992957 | 11.67° C | 61% | 1062.5 hPa | 0 mm | 0.89 m/s, 90° | 74 W/m² | - |
| 1777992656 | 11.67° C | 61% | 1062.6 hPa | 0 mm | 0.89 m/s, 120° | 79 W/m² | - |
| 1777992353 | 11.11° C | 61% | 1062.5 hPa | 0 mm | 0.45 m/s, 136° | 103 W/m² | - |
| 1777992050 | 11.11° C | 61% | 1062.6 hPa | 0 mm | 0.89 m/s, 61° | 43 W/m² | - |
| 1777991748 | 11.11° C | 62% | 1062.6 hPa | 0 mm | 0.89 m/s, 89° | 79 W/m² | - |
* Rain latest hour (hover to see other rain measurements)
** Current wind speed in m/s (hover to see current wind gust speed)